Time;durP1;ratioP1;P1;durP2;ratioP2;P2;SDS_P1;SDS_P2;PMS_P1;PMS_P2;Temp;Humidity;BMP_temperature;BMP_pressure;BME280_temperature;BME280_humidity;BME280_pressure;Samples;Min_cycle;Max_cycle;Signal;HPM_P1;HPM_P2
2021/08/30 00:00:16;;;;;;;;;39.25;32.75;28.50;32.50;;;;;;694614;28;6021;-82
2021/08/30 00:00:36;;;;;;;;;36.00;32.00;28.50;32.40;;;;;;697425;28;6380;-80
2021/08/30 00:00:57;;;;;;;;;35.60;31.60;28.80;32.60;;;;;;697219;28;6975;-82
2021/08/30 00:01:18;;;;;;;;;40.50;34.00;28.50;32.40;;;;;;697263;28;5881;-82
2021/08/30 00:01:40;;;;;;;;;40.00;34.60;28.50;32.40;;;;;;696828;28;6028;-82
2021/08/30 00:02:00;;;;;;;;;41.00;34.00;28.50;32.30;;;;;;697234;28;6233;-81
2021/08/30 00:02:21;;;;;;;;;36.00;32.00;28.50;32.40;;;;;;697227;28;6043;-82
2021/08/30 00:02:42;;;;;;;;;37.00;33.00;28.50;32.40;;;;;;697234;28;5983;-81
2021/08/30 00:03:04;;;;;;;;;37.40;33.40;28.50;32.40;;;;;;697164;28;6095;-81
2021/08/30 00:03:25;;;;;;;;;37.25;31.25;28.50;32.50;;;;;;697308;28;6254;-82
2021/08/30 00:03:45;;;;;;;;;40.40;35.00;28.50;32.50;;;;;;697174;28;6002;-83
2021/08/30 00:04:06;;;;;;;;;39.60;34.40;28.50;32.30;;;;;;697108;28;6133;-81
2021/08/30 00:04:26;;;;;;;;;41.00;35.00;28.50;33.50;;;;;;697389;28;5968;-81
2021/08/30 00:04:47;;;;;;;;;38.00;33.00;28.50;32.30;;;;;;697269;28;5977;-80
2021/08/30 00:05:09;;;;;;;;;41.20;34.80;28.50;32.50;;;;;;697073;28;6112;-80
2021/08/30 00:05:29;;;;;;;;;40.40;33.00;28.50;32.40;;;;;;697334;28;6019;-80
2021/08/30 00:05:50;;;;;;;;;44.50;37.50;28.50;32.40;;;;;;697429;28;5898;-79
2021/08/30 00:06:11;;;;;;;;;40.75;35.25;28.50;32.40;;;;;;696973;28;6109;-79
2021/08/30 00:06:31;;;;;;;;;39.75;34.75;28.50;32.50;;;;;;697261;28;5797;-79
2021/08/30 00:06:52;;;;;;;;;44.75;35.00;28.50;32.50;;;;;;697125;28;6084;-79
2021/08/30 00:07:13;;;;;;;;;42.75;35.50;28.50;32.50;;;;;;697121;28;6203;-79
2021/08/30 00:07:34;;;;;;;;;39.00;33.00;28.50;32.40;;;;;;697243;28;5972;-78
2021/08/30 00:07:54;;;;;;;;;36.75;33.75;28.50;32.50;;;;;;697149;28;5894;-80
2021/08/30 00:08:16;;;;;;;;;38.00;33.00;28.50;32.50;;;;;;696981;28;5988;-78
2021/08/30 00:08:37;;;;;;;;;37.00;33.00;28.50;32.40;;;;;;696983;28;6681;-80
2021/08/30 00:08:58;;;;;;;;;45.75;36.25;28.50;32.40;;;;;;697018;28;6125;-79
2021/08/30 00:09:18;;;;;;;;;37.40;34.40;28.50;32.50;;;;;;696123;28;6302;-79
2021/08/30 00:09:44;;;;;;;;;38.00;32.50;28.50;32.40;;;;;;694361;28;6069;-82
2021/08/30 00:10:10;;;;;;;;;37.00;33.00;28.50;32.40;;;;;;695376;28;6320;-82
2021/08/30 00:10:30;;;;;;;;;34.80;32.40;28.50;32.40;;;;;;694062;28;6397;-79
2021/08/30 00:10:51;;;;;;;;;41.00;35.00;28.50;32.40;;;;;;694473;28;5975;-79
2021/08/30 00:11:17;;;;;;;;;35.60;32.60;28.50;32.30;;;;;;694137;28;6179;-81
2021/08/30 00:11:38;;;;;;;;;36.40;33.00;29.50;33.10;;;;;;696647;28;6552;-80
2021/08/30 00:11:58;;;;;;;;;32.75;30.75;28.50;32.30;;;;;;697108;28;6032;-79
2021/08/30 00:12:19;;;;;;;;;32.00;30.25;28.50;32.40;;;;;;697470;28;6355;-78
2021/08/30 00:12:40;;;;;;;;;34.60;32.20;28.50;32.20;;;;;;697859;28;6751;-79
2021/08/30 00:13:01;;;;;;;;;35.80;32.80;28.60;32.10;;;;;;698407;28;6699;-79
2021/08/30 00:13:22;;;;;;;;;34.50;31.75;28.50;32.20;;;;;;699951;28;6022;-79
2021/08/30 00:13:42;;;;;;;;;38.00;33.00;28.50;32.40;;;;;;699985;28;6004;-83
2021/08/30 00:14:04;;;;;;;;;41.60;32.00;28.60;32.10;;;;;;699965;28;6044;-81
2021/08/30 00:14:25;;;;;;;;;37.00;33.25;28.50;32.10;;;;;;698240;28;6337;-81
2021/08/30 00:14:46;;;;;;;;;41.67;36.00;28.50;32.10;;;;;;697165;28;5920;-81
2021/08/30 00:15:11;;;;;;;;;37.60;33.60;28.50;32.10;;;;;;697177;28;6027;-81
2021/08/30 00:15:32;;;;;;;;;37.00;32.00;28.50;32.10;;;;;;696601;28;6246;-80
2021/08/30 00:15:56;;;;;;;;;39.00;33.75;28.50;32.10;;;;;;697189;28;6049;-83
2021/08/30 00:16:17;;;;;;;;;41.00;35.00;28.50;32.10;;;;;;697006;28;6497;-80
2021/08/30 00:16:37;;;;;;;;;34.80;32.00;28.50;32.20;;;;;;696985;28;6066;-82
2021/08/30 00:16:59;;;;;;;;;40.25;35.00;28.50;32.20;;;;;;697250;28;5959;-80
2021/08/30 00:17:19;;;;;;;;;36.00;33.00;28.50;32.30;;;;;;697031;28;5539;-80
2021/08/30 00:17:41;;;;;;;;;31.00;29.50;28.50;32.30;;;;;;696983;28;6600;-79
2021/08/30 00:18:02;;;;;;;;;34.00;31.50;28.50;32.20;;;;;;697144;28;6496;-80
2021/08/30 00:18:26;;;;;;;;;37.75;33.75;28.50;32.30;;;;;;697704;28;5969;-79
2021/08/30 00:18:48;;;;;;;;;36.00;33.00;28.50;32.30;;;;;;699332;28;6519;-80
2021/08/30 00:19:09;;;;;;;;;40.00;34.00;28.50;32.40;;;;;;696911;28;6183;-80
2021/08/30 00:19:34;;;;;;;;;41.33;36.00;28.50;32.30;;;;;;699738;28;5851;-81
2021/08/30 00:19:55;;;;;;;;;46.25;37.25;28.50;32.30;;;;;;699720;28;6270;-81
2021/08/30 00:20:18;;;;;;;;;38.00;33.50;28.50;32.40;;;;;;699950;28;5914;-80
2021/08/30 00:20:40;;;;;;;;;37.25;33.50;28.50;32.40;;;;;;699746;28;6314;-81
2021/08/30 00:21:01;;;;;;;;;44.00;35.00;28.50;32.40;;;;;;699946;28;6269;-80
2021/08/30 00:21:22;;;;;;;;;38.00;32.50;28.50;32.40;;;;;;700194;28;5939;-80
2021/08/30 00:21:44;;;;;;;;;33.60;32.00;28.50;32.40;;;;;;699660;28;6174;-78
2021/08/30 00:22:05;;;;;;;;;35.40;32.00;28.50;32.40;;;;;;699709;28;6261;-81
2021/08/30 00:22:25;;;;;;;;;39.25;35.25;28.50;32.30;;;;;;700044;28;6213;-79
2021/08/30 00:22:47;;;;;;;;;36.00;33.00;28.50;32.30;;;;;;699555;28;5807;-79
2021/08/30 00:23:08;;;;;;;;;38.00;33.60;28.50;32.30;;;;;;696737;28;7650;-80
2021/08/30 00:23:28;;;;;;;;;35.00;30.00;28.50;32.30;;;;;;696931;28;5970;-81
2021/08/30 00:23:49;;;;;;;;;32.50;29.50;28.50;32.20;;;;;;696886;28;5924;-80
2021/08/30 00:24:10;;;;;;;;;38.60;33.40;28.50;32.20;;;;;;697076;28;5961;-82
2021/08/30 00:24:32;;;;;;;;;38.00;34.00;28.60;32.20;;;;;;697583;28;5968;-80
2021/08/30 00:24:53;;;;;;;;;38.00;33.00;28.50;32.10;;;;;;700590;28;6314;-81
2021/08/30 00:25:14;;;;;;;;;38.33;34.33;28.50;32.20;;;;;;702182;27;5835;-80
2021/08/30 00:25:34;;;;;;;;;38.40;32.40;28.60;32.20;;;;;;699878;28;6607;-79
2021/08/30 00:25:55;;;;;;;;;40.75;34.75;28.60;32.10;;;;;;700100;28;5867;-79
2021/08/30 00:26:16;;;;;;;;;37.40;33.00;28.60;32.20;;;;;;699913;28;6000;-79
2021/08/30 00:26:37;;;;;;;;;38.00;33.40;28.60;32.10;;;;;;699774;28;6113;-80
2021/08/30 00:26:58;;;;;;;;;34.00;32.00;28.60;31.10;;;;;;700017;28;5869;-79
2021/08/30 00:27:19;;;;;;;;;31.00;30.00;28.60;32.00;;;;;;700119;28;6558;-79
2021/08/30 00:27:40;;;;;;;;;33.50;31.00;28.60;32.10;;;;;;699434;28;6079;-78
2021/08/30 00:28:01;;;;;;;;;37.00;30.50;28.60;32.00;;;;;;699249;28;5972;-78
2021/08/30 00:28:21;;;;;;;;;37.50;33.00;28.60;32.00;;;;;;699843;28;6108;-79
2021/08/30 00:28:42;;;;;;;;;34.00;31.50;28.60;32.00;;;;;;699698;28;5972;-79
2021/08/30 00:29:03;;;;;;;;;30.60;30.00;28.60;32.10;;;;;;699707;28;5927;-79
2021/08/30 00:29:26;;;;;;;;;33.00;30.00;28.60;32.10;;;;;;699865;28;5877;-79
2021/08/30 00:29:47;;;;;;;;;37.40;33.00;28.60;32.10;;;;;;699784;28;6265;-79
2021/08/30 00:30:09;;;;;;;;;39.25;35.00;28.60;32.10;;;;;;699874;28;6791;-81
2021/08/30 00:30:30;;;;;;;;;31.60;30.60;28.60;32.10;;;;;;699541;28;6673;-82
2021/08/30 00:30:52;;;;;;;;;37.60;33.00;;;;;;;;697259;28;6220;-81
2021/08/30 00:31:13;;;;;;;;;39.50;32.00;;;;;;;;697510;28;5982;-81
2021/08/30 00:31:34;;;;;;;;;35.50;32.00;28.60;31.10;;;;;;697106;28;7781;-81
2021/08/30 00:31:56;;;;;;;;;37.00;33.00;28.60;32.10;;;;;;697218;28;6285;-82
2021/08/30 00:32:17;;;;;;;;;30.50;29.50;28.60;32.00;;;;;;697040;28;7227;-81
2021/08/30 00:32:38;;;;;;;;;30.50;29.50;28.60;32.00;;;;;;697234;28;5975;-81
2021/08/30 00:32:59;;;;;;;;;33.75;30.00;28.60;32.10;;;;;;697274;28;5970;-81
2021/08/30 00:33:20;;;;;;;;;29.50;28.50;28.60;32.10;;;;;;697228;28;5913;-81
2021/08/30 00:33:41;;;;;;;;;35.00;31.00;28.60;32.10;;;;;;697103;28;5983;-82
2021/08/30 00:34:01;;;;;;;;;37.80;32.20;28.60;32.10;;;;;;697169;28;6030;-80
2021/08/30 00:34:22;;;;;;;;;39.25;33.00;28.60;32.00;;;;;;697081;28;5982;-81
2021/08/30 00:34:43;;;;;;;;;35.50;32.50;28.60;32.10;;;;;;697102;28;6643;-80
2021/08/30 00:35:06;;;;;;;;;31.60;29.60;28.60;32.10;;;;;;696945;28;5925;-81
2021/08/30 00:35:27;;;;;;;;;33.50;31.50;28.60;32.00;;;;;;697021;28;6562;-81
2021/08/30 00:35:48;;;;;;;;;38.00;33.00;28.60;32.00;;;;;;696991;28;6029;-81
2021/08/30 00:36:09;;;;;;;;;35.00;32.00;28.60;32.10;;;;;;697280;28;5749;-82
2021/08/30 00:36:30;;;;;;;;;35.40;31.60;28.60;32.10;;;;;;699839;28;5933;-81
2021/08/30 00:36:51;;;;;;;;;33.50;30.75;28.60;32.10;;;;;;698364;28;5749;-81
2021/08/30 00:37:11;;;;;;;;;41.40;33.00;28.60;32.10;;;;;;699961;28;5866;-81
2021/08/30 00:37:33;;;;;;;;;32.00;30.00;28.60;32.10;;;;;;697221;28;5894;-81
2021/08/30 00:37:53;;;;;;;;;36.50;32.00;28.60;32.20;;;;;;697292;28;5999;-81
2021/08/30 00:38:23;;;;;;;;;32.25;30.50;28.60;32.10;;;;;;697132;28;5964;-80
2021/08/30 00:38:44;;;;;;;;;37.40;32.40;28.60;32.10;;;;;;697028;28;6252;-82
2021/08/30 00:39:05;;;;;;;;;32.40;30.00;28.60;32.10;;;;;;697353;28;6017;-80
2021/08/30 00:39:26;;;;;;;;;40.25;33.75;28.60;32.10;;;;;;697930;28;6380;-80
2021/08/30 00:39:47;;;;;;;;;35.33;33.00;28.60;32.10;;;;;;697428;28;6174;-82
2021/08/30 00:40:09;;;;;;;;;32.50;30.75;28.60;32.10;;;;;;698619;28;6198;-82
2021/08/30 00:40:30;;;;;;;;;34.50;31.75;28.60;32.10;;;;;;700042;28;6156;-83
2021/08/30 00:40:50;;;;;;;;;32.00;31.00;28.60;32.10;;;;;;699926;28;6124;-82
2021/08/30 00:41:13;;;;;;;;;35.20;30.20;28.60;32.20;;;;;;699985;28;5981;-80
2021/08/30 00:41:34;;;;;;;;;34.60;31.60;28.60;32.10;;;;;;697522;28;7355;-79
2021/08/30 00:41:58;;;;;;;;;32.60;30.60;28.60;32.10;;;;;;697306;28;6058;-80
2021/08/30 00:42:19;;;;;;;;;33.60;32.00;28.60;32.10;;;;;;697702;28;6179;-82
2021/08/30 00:42:39;;;;;;;;;35.25;31.50;28.60;32.10;;;;;;697421;28;5909;-79
2021/08/30 00:43:04;;;;;;;;;28.00;27.00;28.60;32.10;;;;;;698647;28;6005;-80
2021/08/30 00:43:25;;;;;;;;;31.00;30.00;28.60;32.10;;;;;;699643;28;6891;-77
2021/08/30 00:43:46;;;;;;;;;29.60;29.60;28.60;32.10;;;;;;699755;28;5931;-78
2021/08/30 00:44:06;;;;;;;;;34.25;31.00;28.60;32.10;;;;;;697045;28;5908;-79
2021/08/30 00:44:28;;;;;;;;;34.60;32.00;28.60;32.10;;;;;;694635;28;6147;-77
2021/08/30 00:44:48;;;;;;;;;31.50;30.00;28.60;32.10;;;;;;693671;28;7526;-78
2021/08/30 00:45:11;;;;;;;;;33.50;31.50;28.60;32.10;;;;;;694558;28;6007;-77
2021/08/30 00:45:32;;;;;;;;;34.40;32.00;28.60;32.10;;;;;;696512;28;6811;-76
2021/08/30 00:45:54;;;;;;;;;30.00;29.00;28.60;32.10;;;;;;697070;28;6174;-77
2021/08/30 00:46:17;;;;;;;;;35.00;32.00;28.60;32.10;;;;;;694016;28;6699;-77
2021/08/30 00:46:37;;;;;;;;;33.80;31.40;28.60;32.20;;;;;;694157;28;6465;-78
2021/08/30 00:46:58;;;;;;;;;34.00;30.25;28.60;32.10;;;;;;694225;28;5998;-78
2021/08/30 00:47:20;;;;;;;;;32.25;30.25;28.60;32.10;;;;;;694215;28;6077;-77
2021/08/30 00:47:44;;;;;;;;;31.20;29.20;28.60;32.10;;;;;;691121;28;6609;-77
2021/08/30 00:48:06;;;;;;;;;31.50;30.00;28.60;32.10;;;;;;694204;28;6488;-82
2021/08/30 00:48:26;;;;;;;;;29.00;29.00;28.60;32.60;;;;;;696753;28;6777;-84
2021/08/30 00:48:48;;;;;;;;;32.20;29.00;28.60;32.20;;;;;;696746;28;6248;-91
2021/08/30 00:49:09;;;;;;;;;32.00;29.00;28.50;32.20;;;;;;696935;28;6473;-88
2021/08/30 00:49:32;;;;;;;;;32.00;30.00;28.60;32.60;;;;;;697179;28;6106;-91
2021/08/30 00:49:56;;;;;;;;;29.60;28.60;28.60;32.10;;;;;;696227;28;6757;-92
2021/08/30 00:50:17;;;;;;;;;28.50;27.75;28.60;32.40;;;;;;697282;28;6156;-89
2021/08/30 00:50:38;;;;;;;;;28.50;28.00;28.60;32.20;;;;;;697290;28;6160;-91
2021/08/30 00:50:59;;;;;;;;;38.00;34.00;28.60;32.70;;;;;;697184;28;6122;-86
2021/08/30 00:51:21;;;;;;;;;32.50;29.75;28.40;32.40;;;;;;697008;28;6251;-86
2021/08/30 00:51:42;;;;;;;;;36.20;31.60;28.50;31.20;;;;;;696568;28;6224;-81
2021/08/30 00:52:03;;;;;;;;;34.50;31.25;28.60;32.50;;;;;;697168;28;6072;-83
2021/08/30 00:52:24;;;;;;;;;32.00;30.60;28.50;31.20;;;;;;697220;28;6006;-84
2021/08/30 00:52:46;;;;;;;;;33.60;30.00;28.60;32.30;;;;;;697164;28;6628;-83
2021/08/30 00:53:06;;;;;;;;;31.50;30.00;28.50;31.30;;;;;;697191;28;6433;-82
2021/08/30 00:53:27;;;;;;;;;33.00;30.40;28.50;32.30;;;;;;697224;28;6030;-82
2021/08/30 00:53:50;;;;;;;;;33.00;30.00;28.50;32.30;;;;;;697215;28;6250;-82
2021/08/30 00:54:11;;;;;;;;;30.50;29.00;28.50;32.30;;;;;;697063;28;7403;-80
2021/08/30 00:54:32;;;;;;;;;33.40;31.20;28.60;32.30;;;;;;697238;28;5970;-80
2021/08/30 00:54:54;;;;;;;;;29.80;28.80;28.50;32.30;;;;;;697244;28;6043;-80
2021/08/30 00:55:16;;;;;;;;;31.75;27.75;28.50;32.30;;;;;;697037;28;6793;-79
2021/08/30 00:55:39;;;;;;;;;28.50;26.00;28.50;32.20;;;;;;697082;28;8095;-84
2021/08/30 00:56:00;;;;;;;;;34.25;28.25;28.50;32.80;;;;;;697143;28;8210;-83
2021/08/30 00:56:21;;;;;;;;;34.00;32.00;28.60;32.30;;;;;;697241;28;6165;-82
2021/08/30 00:56:43;;;;;;;;;30.00;28.00;28.60;32.30;;;;;;697260;28;6630;-83
2021/08/30 00:57:06;;;;;;;;;34.00;32.00;28.60;33.40;;;;;;696985;28;6407;-83
2021/08/30 00:57:27;;;;;;;;;31.00;29.00;28.50;31.30;;;;;;697568;28;6236;-84
2021/08/30 00:57:49;;;;;;;;;31.40;30.00;28.50;32.70;;;;;;694125;28;6231;-84
2021/08/30 00:58:10;;;;;;;;;36.20;33.00;28.50;32.30;;;;;;696504;28;6392;-83
2021/08/30 00:58:31;;;;;;;;;28.00;28.00;28.50;32.20;;;;;;697078;28;5886;-84
2021/08/30 00:58:53;;;;;;;;;33.40;31.40;28.50;31.20;;;;;;697753;28;6280;-86
2021/08/30 00:59:15;;;;;;;;;28.20;26.20;28.50;32.20;;;;;;697190;28;6240;-85
2021/08/30 00:59:41;;;;;;;;;29.00;27.50;28.50;32.40;;;;;;694283;28;6569;-83
2021/08/30 01:00:04;;;;;;;;;33.20;30.60;28.50;32.20;;;;;;693891;28;6834;-85
2021/08/30 01:00:25;;;;;;;;;33.00;28.00;28.50;32.10;;;;;;694012;28;6374;-82
2021/08/30 01:00:46;;;;;;;;;30.60;29.00;28.60;32.20;;;;;;694171;28;6043;-84
2021/08/30 01:01:10;;;;;;;;;31.20;30.00;28.50;32.50;;;;;;694299;28;6030;-85
2021/08/30 01:01:31;;;;;;;;;32.50;30.00;28.50;31.20;;;;;;694108;28;6266;-83
2021/08/30 01:01:51;;;;;;;;;28.25;28.25;28.50;31.20;;;;;;694382;28;5968;-84
2021/08/30 01:02:12;;;;;;;;;29.75;29.25;28.50;31.20;;;;;;694546;28;5943;-86
2021/08/30 01:02:35;;;;;;;;;30.50;30.00;28.60;32.50;;;;;;694459;28;6254;-85
2021/08/30 01:02:56;;;;;;;;;30.75;28.75;29.50;33.00;;;;;;694521;28;6616;-85
2021/08/30 01:03:17;;;;;;;;;30.00;28.75;28.50;31.20;;;;;;694372;28;6230;-85
2021/08/30 01:03:38;;;;;;;;;24.25;23.25;28.50;33.90;;;;;;694495;28;5975;-85
2021/08/30 01:03:59;;;;;;;;;29.00;27.00;28.50;32.90;;;;;;694518;28;6489;-85
2021/08/30 01:04:20;;;;;;;;;28.50;27.00;28.50;32.50;;;;;;694536;28;6211;-84
2021/08/30 01:04:42;;;;;;;;;28.60;27.00;28.50;32.20;;;;;;694661;28;6075;-83
2021/08/30 01:05:03;;;;;;;;;35.00;32.25;28.50;32.40;;;;;;697034;28;6526;-82
2021/08/30 01:05:24;;;;;;;;;33.40;30.40;28.50;32.10;;;;;;696892;28;6315;-83
2021/08/30 01:05:49;;;;;;;;;27.00;26.00;28.50;32.20;;;;;;697000;28;6040;-82
2021/08/30 01:06:48;;;;;;;;;28.00;27.00;28.50;31.20;;;;;;696960;28;6203;-82
2021/08/30 01:07:37;;;;;;;;;29.00;28.00;28.50;32.10;;;;;;696695;28;6089;-80
2021/08/30 01:08:12;;;;;;;;;30.60;27.00;28.40;32.10;;;;;;696888;28;6419;-81
2021/08/30 01:08:38;;;;;;;;;31.80;29.40;28.60;32.20;;;;;;697134;28;6083;-82
2021/08/30 01:09:25;;;;;;;;;33.60;31.40;28.60;32.30;;;;;;697209;28;6502;-83
2021/08/30 01:09:57;;;;;;;;;29.20;26.60;28.60;32.20;;;;;;697199;28;6092;-82
2021/08/30 01:10:27;;;;;;;;;30.00;28.60;28.60;32.20;;;;;;696447;28;6798;-83
2021/08/30 01:11:03;;;;;;;;;32.00;29.00;28.60;32.40;;;;;;697093;28;6229;-82
2021/08/30 01:11:27;;;;;;;;;29.75;28.25;28.60;32.10;;;;;;697035;28;7554;-81
2021/08/30 01:12:02;;;;;;;;;29.00;29.00;28.50;32.10;;;;;;697076;28;5976;-83
2021/08/30 01:12:42;;;;;;;;;30.75;30.00;28.60;32.20;;;;;;697176;28;6394;-82
2021/08/30 01:13:10;;;;;;;;;29.40;28.00;28.50;32.10;;;;;;697052;28;6296;-84
2021/08/30 01:13:37;;;;;;;;;30.50;29.25;28.50;31.20;;;;;;696983;28;6498;-83
2021/08/30 01:14:05;;;;;;;;;34.40;31.60;28.50;32.20;;;;;;697365;28;6084;-82
2021/08/30 01:14:30;;;;;;;;;29.20;27.20;28.50;32.20;;;;;;696894;28;6486;-82
2021/08/30 01:15:08;;;;;;;;;28.00;26.00;28.50;32.20;;;;;;697173;28;6051;-83
2021/08/30 01:15:39;;;;;;;;;28.00;27.80;28.50;31.30;;;;;;697176;28;6250;-82
2021/08/30 01:16:06;;;;;;;;;31.60;30.20;28.50;31.30;;;;;;697173;28;6126;-84
2021/08/30 01:16:29;;;;;;;;;30.50;27.00;28.50;32.30;;;;;;697050;28;6096;-85
2021/08/30 01:16:51;;;;;;;;;24.00;22.40;28.40;31.20;;;;;;696881;28;6099;-84
2021/08/30 01:17:13;;;;;;;;;26.40;25.40;28.50;32.30;;;;;;697232;28;6602;-85
2021/08/30 01:17:36;;;;;;;;;25.40;25.00;28.50;32.40;;;;;;697087;28;6386;-85
2021/08/30 01:18:01;;;;;;;;;26.40;26.40;28.50;32.40;;;;;;697235;28;6290;-85
2021/08/30 01:18:25;;;;;;;;;34.00;30.00;28.50;32.30;;;;;;697038;28;7407;-83
2021/08/30 01:18:49;;;;;;;;;28.00;26.50;28.50;32.30;;;;;;697114;28;6219;-88
2021/08/30 01:19:19;;;;;;;;;30.40;27.40;28.50;32.30;;;;;;696999;28;6164;-84
2021/08/30 01:19:47;;;;;;;;;27.20;26.60;28.50;32.20;;;;;;696968;28;6230;-85
2021/08/30 01:20:44;;;;;;;;;26.80;25.80;28.50;32.20;;;;;;696709;28;6908;-84
2021/08/30 01:21:27;;;;;;;;;25.60;25.00;28.50;32.30;;;;;;696982;28;6880;-83
2021/08/30 01:21:48;;;;;;;;;30.40;29.20;28.50;32.30;;;;;;697052;28;6355;-83
2021/08/30 01:22:11;;;;;;;;;28.00;27.00;28.50;32.30;;;;;;697129;28;6790;-84
2021/08/30 01:22:37;;;;;;;;;27.40;26.80;28.50;32.30;;;;;;696721;28;6522;-83
2021/08/30 01:22:59;;;;;;;;;25.60;25.00;28.50;32.30;;;;;;697058;28;6277;-83
2021/08/30 01:23:22;;;;;;;;;26.00;25.25;28.50;32.20;;;;;;697015;28;6382;-83
2021/08/30 01:23:49;;;;;;;;;33.00;30.75;28.40;32.20;;;;;;697133;28;6244;-85
2021/08/30 01:24:15;;;;;;;;;33.50;31.50;28.50;32.50;;;;;;697125;28;6743;-85
2021/08/30 01:24:37;;;;;;;;;28.00;27.00;28.50;32.30;;;;;;696904;28;6292;-85
2021/08/30 01:25:00;;;;;;;;;27.40;27.40;28.50;32.30;;;;;;697163;28;6606;-85
2021/08/30 01:25:23;;;;;;;;;25.75;24.75;28.50;32.30;;;;;;697067;28;6258;-85
2021/08/30 01:25:45;;;;;;;;;26.00;24.60;28.50;32.40;;;;;;696873;28;6416;-85
2021/08/30 01:26:08;;;;;;;;;27.00;26.00;28.40;32.10;;;;;;696997;28;6159;-86
2021/08/30 01:26:38;;;;;;;;;27.25;24.75;28.40;32.10;;;;;;696567;28;6801;-86
2021/08/30 01:27:01;;;;;;;;;25.20;24.60;28.50;32.30;;;;;;696739;28;6186;-84
2021/08/30 01:27:24;;;;;;;;;24.00;24.00;28.50;32.30;;;;;;696793;28;6350;-85
2021/08/30 01:27:47;;;;;;;;;25.00;24.00;28.50;32.20;;;;;;696730;28;6177;-86
2021/08/30 01:28:09;;;;;;;;;25.00;24.00;28.50;32.20;;;;;;694082;28;6415;-82
2021/08/30 01:28:36;;;;;;;;;24.20;24.20;28.50;32.30;;;;;;695989;28;6379;-85
2021/08/30 01:29:05;;;;;;;;;24.80;24.80;28.40;32.10;;;;;;696914;28;6144;-85
2021/08/30 01:30:04;;;;;;;;;31.00;28.25;28.50;32.40;;;;;;696987;28;6838;-83
2021/08/30 01:30:29;;;;;;;;;26.00;25.00;28.50;32.20;;;;;;697243;28;6549;-84
2021/08/30 01:30:55;;;;;;;;;34.20;31.00;28.50;32.20;;;;;;697795;28;6177;-83
2021/08/30 01:31:27;;;;;;;;;25.40;24.40;28.40;31.20;;;;;;697731;28;6184;-85
2021/08/30 01:31:57;;;;;;;;;27.20;26.20;28.40;32.20;;;;;;697490;28;6614;-81
2021/08/30 01:32:37;;;;;;;;;30.00;25.25;28.50;32.10;;;;;;697470;28;6574;-85
2021/08/30 01:33:02;;;;;;;;;24.60;24.00;28.50;32.20;;;;;;697689;28;6355;-83
2021/08/30 01:33:25;;;;;;;;;29.40;25.40;28.50;32.20;;;;;;697884;28;6184;-84
2021/08/30 01:33:50;;;;;;;;;28.75;26.00;28.40;32.10;;;;;;697560;28;6970;-84
2021/08/30 01:34:13;;;;;;;;;29.00;27.60;28.40;32.10;;;;;;697522;28;6276;-84
2021/08/30 01:34:37;;;;;;;;;24.80;23.20;28.50;32.10;;;;;;697561;28;6833;-84
2021/08/30 01:35:00;;;;;;;;;32.00;29.25;28.50;32.20;;;;;;697841;28;6406;-81
2021/08/30 01:35:26;;;;;;;;;26.80;24.80;28.50;32.20;;;;;;697667;28;6605;-81
2021/08/30 01:35:47;;;;;;;;;25.60;24.60;28.50;32.30;;;;;;697297;28;7128;-83
2021/08/30 01:36:09;;;;;;;;;29.00;26.75;28.50;32.20;;;;;;697615;28;6589;-83
2021/08/30 01:36:32;;;;;;;;;25.40;24.40;28.40;32.10;;;;;;697395;28;6069;-83
2021/08/30 01:36:53;;;;;;;;;25.25;24.25;28.50;32.30;;;;;;697520;28;5845;-84
2021/08/30 01:37:14;;;;;;;;;27.75;27.00;28.50;32.20;;;;;;697440;28;6321;-84
2021/08/30 01:37:38;;;;;;;;;27.80;26.20;28.40;32.10;;;;;;697397;28;6064;-84
2021/08/30 01:38:09;;;;;;;;;27.25;25.75;28.40;32.30;;;;;;697761;28;6170;-82
2021/08/30 01:38:30;;;;;;;;;24.00;23.75;28.40;32.60;;;;;;697929;28;6379;-87
2021/08/30 01:38:58;;;;;;;;;26.00;25.00;28.40;32.10;;;;;;697875;28;6276;-83
2021/08/30 01:39:19;;;;;;;;;26.00;24.00;28.40;32.20;;;;;;697723;28;6148;-84
2021/08/30 01:39:43;;;;;;;;;22.60;22.40;28.40;32.10;;;;;;697664;28;6683;-83
2021/08/30 01:40:07;;;;;;;;;32.40;29.60;28.40;32.30;;;;;;697440;28;7134;-83
2021/08/30 01:40:31;;;;;;;;;29.00;27.00;28.40;32.10;;;;;;697480;28;6580;-83
2021/08/30 01:40:52;;;;;;;;;27.00;25.25;28.50;32.10;;;;;;697460;28;6618;-84
2021/08/30 01:41:16;;;;;;;;;27.75;25.00;28.40;31.10;;;;;;697640;28;6231;-83
2021/08/30 01:41:38;;;;;;;;;26.60;24.40;28.40;32.10;;;;;;697325;28;6181;-84
2021/08/30 01:42:03;;;;;;;;;24.60;23.00;28.40;32.10;;;;;;697573;28;6163;-84
2021/08/30 01:42:25;;;;;;;;;26.00;23.40;28.50;32.20;;;;;;697610;28;6307;-82
2021/08/30 01:42:49;;;;;;;;;27.00;25.00;28.50;32.10;;;;;;697360;28;6148;-83
2021/08/30 01:43:10;;;;;;;;;28.50;26.75;28.50;32.10;;;;;;697711;28;6585;-85
2021/08/30 01:43:32;;;;;;;;;27.60;27.00;28.50;32.30;;;;;;697722;28;6023;-87
2021/08/30 01:43:55;;;;;;;;;29.80;28.20;28.50;32.10;;;;;;697883;28;6155;-89
2021/08/30 01:44:16;;;;;;;;;27.40;25.60;28.50;32.10;;;;;;697718;28;6248;-86
2021/08/30 01:44:37;;;;;;;;;27.00;26.50;28.50;32.30;;;;;;697806;28;5961;-91
2021/08/30 01:45:01;;;;;;;;;28.00;27.00;28.40;32.00;;;;;;697867;28;6595;-89
2021/08/30 01:45:31;;;;;;;;;29.00;28.50;28.50;32.10;;;;;;697862;28;6141;-86
2021/08/30 01:45:55;;;;;;;;;24.40;22.00;28.40;32.10;;;;;;697545;28;6282;-82
2021/08/30 01:46:16;;;;;;;;;32.20;29.60;28.50;32.20;;;;;;697712;28;6211;-88
2021/08/30 01:46:38;;;;;;;;;30.00;27.50;28.40;32.30;;;;;;697799;28;5905;-80
2021/08/30 01:46:59;;;;;;;;;23.40;22.00;28.40;31.10;;;;;;697703;28;7219;-89
2021/08/30 01:47:21;;;;;;;;;23.00;22.00;28.40;32.10;;;;;;698032;28;6053;-87
2021/08/30 01:47:43;;;;;;;;;28.60;28.00;28.40;32.00;;;;;;697467;28;6141;-88
2021/08/30 01:48:06;;;;;;;;;23.25;22.50;28.40;32.10;;;;;;697667;28;6337;-82
2021/08/30 01:48:26;;;;;;;;;23.60;22.00;28.40;32.00;;;;;;697702;28;6435;-84
2021/08/30 01:48:50;;;;;;;;;28.25;27.50;28.40;32.00;;;;;;697825;28;5889;-85
2021/08/30 01:49:13;;;;;;;;;27.00;26.20;28.40;32.10;;;;;;697500;28;6081;-86
2021/08/30 01:49:34;;;;;;;;;32.50;30.00;28.40;32.20;;;;;;694818;28;6354;-84
2021/08/30 01:50:03;;;;;;;;;26.25;24.75;28.40;32.20;;;;;;694747;28;6138;-86
2021/08/30 01:50:25;;;;;;;;;27.60;26.40;28.40;32.10;;;;;;694782;28;6405;-83
2021/08/30 01:50:47;;;;;;;;;26.40;25.40;28.40;32.20;;;;;;694909;28;6424;-87
2021/08/30 01:51:09;;;;;;;;;26.00;24.00;28.40;32.30;;;;;;694818;28;7283;-89
2021/08/30 01:51:31;;;;;;;;;23.00;23.00;28.40;32.20;;;;;;697462;28;7504;-92
2021/08/30 01:51:53;;;;;;;;;24.50;22.75;28.40;32.10;;;;;;697895;28;7844;-89
2021/08/30 01:52:14;;;;;;;;;23.60;23.00;28.40;32.20;;;;;;697371;28;6540;-92
2021/08/30 01:52:38;;;;;;;;;24.80;24.40;28.40;32.20;;;;;;697617;28;6042;-91
2021/08/30 01:53:04;;;;;;;;;27.80;26.00;28.40;32.30;;;;;;697606;28;6170;-85
2021/08/30 01:53:26;;;;;;;;;22.00;21.00;28.30;32.30;;;;;;697475;28;6596;-89
2021/08/30 01:53:47;;;;;;;;;27.00;27.00;28.30;32.30;;;;;;697729;28;6381;-88
2021/08/30 01:54:10;;;;;;;;;25.40;25.00;28.30;32.40;;;;;;697442;28;6387;-90
2021/08/30 01:54:31;;;;;;;;;27.20;25.40;28.30;32.30;;;;;;697373;28;6319;-86
2021/08/30 01:54:52;;;;;;;;;23.60;22.20;28.30;32.40;;;;;;694866;28;6399;-90
2021/08/30 01:55:49;;;;;;;;;28.25;26.50;28.30;32.40;;;;;;694827;28;6191;-87
2021/08/30 01:56:13;;;;;;;;;24.40;22.00;28.30;32.30;;;;;;694675;28;6394;-87
2021/08/30 01:56:35;;;;;;;;;21.60;21.00;28.30;32.40;;;;;;694720;28;6180;-84
2021/08/30 01:56:57;;;;;;;;;25.00;24.60;28.30;32.40;;;;;;697333;28;7519;-83
2021/08/30 01:57:21;;;;;;;;;25.75;25.00;28.30;32.50;;;;;;697808;28;7500;-82
2021/08/30 02:00:49;;;;;;;;;27.00;24.00;28.30;32.50;;;;;;697540;28;6191;-86
2021/08/30 02:01:12;;;;;;;;;20.00;19.50;28.20;32.50;;;;;;697455;28;6875;-85
2021/08/30 02:01:35;;;;;;;;;26.50;25.50;28.20;32.60;;;;;;697466;28;6606;-85
2021/08/30 02:01:56;;;;;;;;;26.00;24.60;28.20;32.50;;;;;;697754;28;7319;-79
2021/08/30 02:02:17;;;;;;;;;23.00;22.00;28.20;31.50;;;;;;697745;28;5883;-85
2021/08/30 02:02:37;;;;;;;;;25.20;24.00;28.20;32.60;;;;;;697457;28;5973;-85
2021/08/30 02:02:58;;;;;;;;;26.50;25.50;28.20;32.60;;;;;;697770;28;5779;-85
2021/08/30 02:03:30;;;;;;;;;27.50;26.00;28.20;32.60;;;;;;697774;28;5911;-87
2021/08/30 02:03:52;;;;;;;;;25.40;24.40;28.20;32.50;;;;;;697466;28;6429;-88
2021/08/30 02:04:13;;;;;;;;;22.00;20.75;28.20;32.50;;;;;;697297;28;6403;-84
2021/08/30 02:04:35;;;;;;;;;26.25;26.25;28.20;32.70;;;;;;697838;28;5933;-86
2021/08/30 02:04:56;;;;;;;;;21.00;20.60;28.20;32.60;;;;;;697096;28;9454;-85